sensor_id;sensor_type;location;lat;lon;timestamp;pressure;altitude;pressure_sealevel;temperature;humidity
44988;BME280;35735;52.226;21.254;2024-03-17T00:00:53;100275.28;;;6.57;100.00
44988;BME280;35735;52.226;21.254;2024-03-17T00:06:14;100292.94;;;6.42;100.00
44988;BME280;35735;52.226;21.254;2024-03-17T00:11:35;100300.06;;;6.40;100.00
44988;BME280;35735;52.226;21.254;2024-03-17T00:16:56;100293.75;;;6.37;100.00
44988;BME280;35735;52.226;21.254;2024-03-17T00:22:17;100302.66;;;6.36;100.00
44988;BME280;35735;52.226;21.254;2024-03-17T00:27:38;100312.41;;;6.29;100.00
44988;BME280;35735;52.226;21.254;2024-03-17T00:32:59;100318.56;;;6.22;100.00
44988;BME280;35735;52.226;21.254;2024-03-17T00:38:20;100322.06;;;6.19;100.00
44988;BME280;35735;52.226;21.254;2024-03-17T00:43:40;100326.53;;;6.19;100.00
44988;BME280;35735;52.226;21.254;2024-03-17T00:49:01;100332.78;;;6.19;100.00
44988;BME280;35735;52.226;21.254;2024-03-17T00:54:22;100330.97;;;6.17;100.00
44988;BME280;35735;52.226;21.254;2024-03-17T00:59:43;100330.09;;;6.18;100.00
44988;BME280;35735;52.226;21.254;2024-03-17T01:05:04;100330.00;;;6.13;100.00
44988;BME280;35735;52.226;21.254;2024-03-17T01:10:25;100336.19;;;6.09;100.00
44988;BME280;35735;52.226;21.254;2024-03-17T01:15:51;100329.84;;;6.02;100.00
44988;BME280;35735;52.226;21.254;2024-03-17T01:21:12;100329.63;;;5.93;100.00
44988;BME280;35735;52.226;21.254;2024-03-17T01:26:33;100338.37;;;5.83;100.00
44988;BME280;35735;52.226;21.254;2024-03-17T01:31:54;100327.72;;;5.86;100.00
44988;BME280;35735;52.226;21.254;2024-03-17T01:37:15;100350.03;;;5.85;100.00
44988;BME280;35735;52.226;21.254;2024-03-17T01:42:39;100357.19;;;5.86;100.00
44988;BME280;35735;52.226;21.254;2024-03-17T01:48:03;100357.06;;;5.78;100.00
44988;BME280;35735;52.226;21.254;2024-03-17T01:53:25;100366.72;;;5.68;100.00
44988;BME280;35735;52.226;21.254;2024-03-17T01:58:46;100364.72;;;5.60;100.00
44988;BME280;35735;52.226;21.254;2024-03-17T02:04:07;100368.19;;;5.54;100.00
44988;BME280;35735;52.226;21.254;2024-03-17T02:09:28;100384.88;;;5.41;100.00
44988;BME280;35735;52.226;21.254;2024-03-17T02:14:49;100383.84;;;5.32;100.00
44988;BME280;35735;52.226;21.254;2024-03-17T02:20:10;100379.28;;;5.27;100.00
44988;BME280;35735;52.226;21.254;2024-03-17T02:25:31;100384.47;;;5.20;100.00
44988;BME280;35735;52.226;21.254;2024-03-17T02:30:53;100393.41;;;5.21;100.00
44988;BME280;35735;52.226;21.254;2024-03-17T02:36:13;100390.69;;;5.18;100.00
44988;BME280;35735;52.226;21.254;2024-03-17T02:41:34;100402.19;;;5.14;100.00
44988;BME280;35735;52.226;21.254;2024-03-17T02:46:55;100395.81;;;5.09;100.00
44988;BME280;35735;52.226;21.254;2024-03-17T02:52:17;100402.13;;;5.12;100.00
44988;BME280;35735;52.226;21.254;2024-03-17T02:57:38;100399.50;;;5.14;100.00
44988;BME280;35735;52.226;21.254;2024-03-17T03:02:58;100403.06;;;5.13;100.00
44988;BME280;35735;52.226;21.254;2024-03-17T03:08:19;100406.59;;;5.12;100.00
44988;BME280;35735;52.226;21.254;2024-03-17T03:13:43;100418.16;;;5.11;100.00
44988;BME280;35735;52.226;21.254;2024-03-17T03:19:04;100416.84;;;4.92;100.00
44988;BME280;35735;52.226;21.254;2024-03-17T03:24:25;100416.81;;;4.90;100.00
44988;BME280;35735;52.226;21.254;2024-03-17T03:29:46;100422.97;;;4.86;100.00
44988;BME280;35735;52.226;21.254;2024-03-17T03:35:07;100418.22;;;4.73;100.00
44988;BME280;35735;52.226;21.254;2024-03-17T03:40:28;100414.50;;;4.68;100.00
44988;BME280;35735;52.226;21.254;2024-03-17T03:45:49;100411.78;;;4.64;100.00
44988;BME280;35735;52.226;21.254;2024-03-17T03:51:10;100406.59;;;4.72;100.00
44988;BME280;35735;52.226;21.254;2024-03-17T03:56:31;100411.19;;;4.78;100.00
44988;BME280;35735;52.226;21.254;2024-03-17T04:01:52;100416.56;;;4.78;100.00
44988;BME280;35735;52.226;21.254;2024-03-17T04:07:13;100418.25;;;4.76;100.00
44988;BME280;35735;52.226;21.254;2024-03-17T04:12:34;100416.56;;;4.78;100.00
44988;BME280;35735;52.226;21.254;2024-03-17T04:17:55;100421.91;;;4.78;100.00
44988;BME280;35735;52.226;21.254;2024-03-17T04:23:16;100423.56;;;4.74;100.00
44988;BME280;35735;52.226;21.254;2024-03-17T04:28:37;100415.47;;;4.70;100.00
44988;BME280;35735;52.226;21.254;2024-03-17T04:33:58;100426.25;;;4.74;100.00
44988;BME280;35735;52.226;21.254;2024-03-17T04:39:19;100428.66;;;4.63;100.00
44988;BME280;35735;52.226;21.254;2024-03-17T04:44:41;100428.59;;;4.60;100.00
44988;BME280;35735;52.226;21.254;2024-03-17T04:50:02;100421.38;;;4.56;100.00
44988;BME280;35735;52.226;21.254;2024-03-17T04:55:23;100425.84;;;4.57;100.00
44988;BME280;35735;52.226;21.254;2024-03-17T05:00:44;100424.09;;;4.58;100.00
44988;BME280;35735;52.226;21.254;2024-03-17T05:06:05;100420.66;;;4.63;100.00
44988;BME280;35735;52.226;21.254;2024-03-17T05:11:26;100428.66;;;4.63;100.00
44988;BME280;35735;52.226;21.254;2024-03-17T05:16:50;100425.00;;;4.58;100.00
44988;BME280;35735;52.226;21.254;2024-03-17T05:22:11;100426.13;;;4.68;100.00
44988;BME280;35735;52.226;21.254;2024-03-17T05:27:32;100427.94;;;4.71;100.00
44988;BME280;35735;52.226;21.254;2024-03-17T05:32:53;100428.91;;;4.73;100.00
44988;BME280;35735;52.226;21.254;2024-03-17T05:38:14;100431.62;;;4.76;100.00
44988;BME280;35735;52.226;21.254;2024-03-17T05:43:36;100431.75;;;4.80;100.00
44988;BME280;35735;52.226;21.254;2024-03-17T05:48:57;100436.19;;;4.80;100.00
44988;BME280;35735;52.226;21.254;2024-03-17T05:54:18;100440.81;;;4.87;100.00
44988;BME280;35735;52.226;21.254;2024-03-17T05:59:39;100441.75;;;4.89;100.00
44988;BME280;35735;52.226;21.254;2024-03-17T06:05:00;100440.06;;;4.94;100.00
44988;BME280;35735;52.226;21.254;2024-03-17T06:10:21;100447.50;;;5.08;100.00
44988;BME280;35735;52.226;21.254;2024-03-17T06:15:43;100441.53;;;5.18;100.00
44988;BME280;35735;52.226;21.254;2024-03-17T06:21:05;100440.09;;;5.35;100.00
44988;BME280;35735;52.226;21.254;2024-03-17T06:26:26;100445.16;;;5.64;100.00
44988;BME280;35735;52.226;21.254;2024-03-17T06:31:46;100442.12;;;5.90;100.00
44988;BME280;35735;52.226;21.254;2024-03-17T06:37:07;100447.66;;;5.99;100.00
44988;BME280;35735;52.226;21.254;2024-03-17T06:42:29;100442.47;;;6.07;100.00
44988;BME280;35735;52.226;21.254;2024-03-17T06:47:50;100450.63;;;6.15;100.00
44988;BME280;35735;52.226;21.254;2024-03-17T06:53:11;100447.22;;;6.23;100.00
44988;BME280;35735;52.226;21.254;2024-03-17T06:58:32;100444.47;;;6.19;100.00
44988;BME280;35735;52.226;21.254;2024-03-17T07:03:53;100441.78;;;6.19;100.00
44988;BME280;35735;52.226;21.254;2024-03-17T07:09:14;100444.47;;;6.19;100.00
44988;BME280;35735;52.226;21.254;2024-03-17T07:14:35;100450.78;;;6.22;100.00
44988;BME280;35735;52.226;21.254;2024-03-17T07:19:56;100449.84;;;6.20;100.00
44988;BME280;35735;52.226;21.254;2024-03-17T07:25:17;100452.31;;;6.09;100.00
44988;BME280;35735;52.226;21.254;2024-03-17T07:30:46;100456.63;;;6.01;100.00
44988;BME280;35735;52.226;21.254;2024-03-17T07:36:10;100460.34;;;6.09;100.00
44988;BME280;35735;52.226;21.254;2024-03-17T07:41:31;100470.31;;;6.15;100.00
44988;BME280;35735;52.226;21.254;2024-03-17T07:46:54;100465.91;;;6.19;100.00
44988;BME280;35735;52.226;21.254;2024-03-17T07:52:15;100471.25;;;6.19;100.00
44988;BME280;35735;52.226;21.254;2024-03-17T07:57:36;100471.19;;;6.16;100.00
44988;BME280;35735;52.226;21.254;2024-03-17T08:02:57;100477.53;;;6.19;100.00
44988;BME280;35735;52.226;21.254;2024-03-17T08:08:18;100469.59;;;6.25;100.00
44988;BME280;35735;52.226;21.254;2024-03-17T08:13:39;100478.53;;;6.26;100.00
44988;BME280;35735;52.226;21.254;2024-03-17T08:19:00;100462.59;;;6.34;100.00
44988;BME280;35735;52.226;21.254;2024-03-17T08:24:21;100470.72;;;6.40;100.00
44988;BME280;35735;52.226;21.254;2024-03-17T08:29:42;100479.84;;;6.49;100.00
44988;BME280;35735;52.226;21.254;2024-03-17T08:35:03;100471.91;;;6.56;100.00
44988;BME280;35735;52.226;21.254;2024-03-17T08:40:24;100465.88;;;6.69;100.00
44988;BME280;35735;52.226;21.254;2024-03-17T08:45:45;100462.41;;;6.76;100.00
44988;BME280;35735;52.226;21.254;2024-03-17T08:51:21;100458.03;;;6.81;100.00
44988;BME280;35735;52.226;21.254;2024-03-17T08:56:41;100466.19;;;6.89;100.00
44988;BME280;35735;52.226;21.254;2024-03-17T09:02:03;100469.97;;;7.00;100.00
44988;BME280;35735;52.226;21.254;2024-03-17T09:07:23;100464.63;;;7.03;100.00
44988;BME280;35735;52.226;21.254;2024-03-17T09:12:44;100472.66;;;7.02;100.00
44988;BME280;35735;52.226;21.254;2024-03-17T09:18:05;100477.09;;;7.01;100.00
44988;BME280;35735;52.226;21.254;2024-03-17T09:23:27;100473.47;;;6.98;100.00
44988;BME280;35735;52.226;21.254;2024-03-17T09:28:47;100473.50;;;6.99;100.00
44988;BME280;35735;52.226;21.254;2024-03-17T09:34:09;100465.38;;;6.95;100.00
44988;BME280;35735;52.226;21.254;2024-03-17T09:39:29;100468.91;;;6.91;100.00
44988;BME280;35735;52.226;21.254;2024-03-17T09:44:52;100474.09;;;6.78;100.00
44988;BME280;35735;52.226;21.254;2024-03-17T09:50:14;100480.78;;;6.53;100.00
44988;BME280;35735;52.226;21.254;2024-03-17T09:55:34;100487.69;;;6.37;100.00
44988;BME280;35735;52.226;21.254;2024-03-17T10:00:55;100478.47;;;6.23;100.00
44988;BME280;35735;52.226;21.254;2024-03-17T10:06:18;100494.34;;;6.10;100.00
44988;BME280;35735;52.226;21.254;2024-03-17T10:11:41;100479.97;;;6.07;100.00
44988;BME280;35735;52.226;21.254;2024-03-17T10:17:02;100491.63;;;6.09;100.00
44988;BME280;35735;52.226;21.254;2024-03-17T10:22:23;100489.13;;;6.20;100.00
44988;BME280;35735;52.226;21.254;2024-03-17T10:27:44;100491.97;;;6.27;100.00
44988;BME280;35735;52.226;21.254;2024-03-17T10:33:05;100489.50;;;6.38;100.00
44988;BME280;35735;52.226;21.254;2024-03-17T10:38:28;100477.16;;;6.49;100.00
44988;BME280;35735;52.226;21.254;2024-03-17T10:43:49;100482.75;;;6.62;100.00
44988;BME280;35735;52.226;21.254;2024-03-17T10:49:11;100486.19;;;6.55;100.00
44988;BME280;35735;52.226;21.254;2024-03-17T10:54:34;100485.25;;;6.51;100.00
44988;BME280;35735;52.226;21.254;2024-03-17T10:59:55;100497.81;;;6.54;100.00
44988;BME280;35735;52.226;21.254;2024-03-17T11:10:51;100482.25;;;6.34;100.00
44988;BME280;35735;52.226;21.254;2024-03-17T11:16:25;100488.56;;;6.38;100.00
44988;BME280;35735;52.226;21.254;2024-03-17T11:21:47;100473.41;;;6.38;100.00
44988;BME280;35735;52.226;21.254;2024-03-17T11:27:39;100476.78;;;6.28;100.00
44988;BME280;35735;52.226;21.254;2024-03-17T11:33:00;100477.56;;;6.22;100.00
44988;BME280;35735;52.226;21.254;2024-03-17T11:49:44;100494.31;;;5.68;100.00
44988;BME280;35735;52.226;21.254;2024-03-17T11:55:15;100486.16;;;5.60;100.00
44988;BME280;35735;52.226;21.254;2024-03-17T12:00:36;100495.13;;;5.62;100.00
44988;BME280;35735;52.226;21.254;2024-03-17T12:05:57;100495.13;;;5.62;100.00
44988;BME280;35735;52.226;21.254;2024-03-17T12:11:18;100495.06;;;5.61;100.00
44988;BME280;35735;52.226;21.254;2024-03-17T12:16:46;100511.72;;;5.46;100.00
44988;BME280;35735;52.226;21.254;2024-03-17T12:22:19;100487.50;;;5.41;100.00
44988;BME280;35735;52.226;21.254;2024-03-17T12:27:44;100489.16;;;5.34;100.00
44988;BME280;35735;52.226;21.254;2024-03-17T12:33:09;100485.63;;;5.35;100.00
44988;BME280;35735;52.226;21.254;2024-03-17T12:38:32;100484.19;;;5.53;100.00
44988;BME280;35735;52.226;21.254;2024-03-17T12:43:52;100477.37;;;5.67;100.00
44988;BME280;35735;52.226;21.254;2024-03-17T12:49:13;100478.63;;;5.86;100.00
44988;BME280;35735;52.226;21.254;2024-03-17T12:54:34;100478.13;;;6.04;100.00
44988;BME280;35735;52.226;21.254;2024-03-17T12:59:55;100471.00;;;6.05;100.00
44988;BME280;35735;52.226;21.254;2024-03-17T13:05:18;100486.75;;;5.91;100.00
44988;BME280;35735;52.226;21.254;2024-03-17T13:10:41;100480.41;;;5.86;100.00
44988;BME280;35735;52.226;21.254;2024-03-17T13:16:02;100491.13;;;5.86;100.00
44988;BME280;35735;52.226;21.254;2024-03-17T13:21:23;100476.97;;;5.91;100.00
44988;BME280;35735;52.226;21.254;2024-03-17T13:26:44;100479.81;;;5.99;100.00
44988;BME280;35735;52.226;21.254;2024-03-17T13:32:05;100477.44;;;6.15;100.00
44988;BME280;35735;52.226;21.254;2024-03-17T13:37:26;100472.13;;;6.18;100.00
44988;BME280;35735;52.226;21.254;2024-03-17T13:42:50;100475.56;;;6.10;100.00
44988;BME280;35735;52.226;21.254;2024-03-17T13:48:11;100490.66;;;6.05;100.00
44988;BME280;35735;52.226;21.254;2024-03-17T13:53:32;100502.63;;;5.80;100.00
44988;BME280;35735;52.226;21.254;2024-03-17T13:58:53;100509.03;;;5.46;100.00
44988;BME280;35735;52.226;21.254;2024-03-17T14:04:14;100514.53;;;5.12;100.00
44988;BME280;35735;52.226;21.254;2024-03-17T14:09:35;100514.13;;;4.95;100.00
44988;BME280;35735;52.226;21.254;2024-03-17T14:14:56;100501.44;;;4.87;100.00
44988;BME280;35735;52.226;21.254;2024-03-17T14:20:17;100508.37;;;4.78;100.00
44988;BME280;35735;52.226;21.254;2024-03-17T14:25:38;100516.19;;;4.71;100.00
44988;BME280;35735;52.226;21.254;2024-03-17T14:30:59;100515.16;;;4.66;100.00
44988;BME280;35735;52.226;21.254;2024-03-17T14:36:19;100510.63;;;4.61;100.00
44988;BME280;35735;52.226;21.254;2024-03-17T14:41:40;100503.62;;;4.67;100.00
44988;BME280;35735;52.226;21.254;2024-03-17T14:47:01;100508.19;;;4.72;100.00
44988;BME280;35735;52.226;21.254;2024-03-17T14:52:22;100514.50;;;4.74;100.00
44988;BME280;35735;52.226;21.254;2024-03-17T14:57:43;100523.34;;;4.72;100.00
44988;BME280;35735;52.226;21.254;2024-03-17T15:03:05;100521.31;;;4.61;100.00
44988;BME280;35735;52.226;21.254;2024-03-17T15:08:26;100524.63;;;4.51;100.00
44988;BME280;35735;52.226;21.254;2024-03-17T15:13:47;100538.56;;;4.41;100.00
44988;BME280;35735;52.226;21.254;2024-03-17T15:19:07;100532.16;;;4.33;100.00
44988;BME280;35735;52.226;21.254;2024-03-17T15:24:28;100541.63;;;4.21;100.00
44988;BME280;35735;52.226;21.254;2024-03-17T15:29:49;100543.19;;;4.13;100.00
44988;BME280;35735;52.226;21.254;2024-03-17T15:35:11;100546.56;;;4.06;100.00
44988;BME280;35735;52.226;21.254;2024-03-17T15:40:31;100541.78;;;3.96;100.00
44988;BME280;35735;52.226;21.254;2024-03-17T15:45:53;100556.78;;;3.90;100.00
44988;BME280;35735;52.226;21.254;2024-03-17T15:51:14;100563.19;;;3.67;100.00
44988;BME280;35735;52.226;21.254;2024-03-17T15:56:35;100568.34;;;3.61;100.00
44988;BME280;35735;52.226;21.254;2024-03-17T16:01:56;100570.50;;;3.44;100.00
44988;BME280;35735;52.226;21.254;2024-03-17T16:07:18;100584.19;;;3.26;100.00
44988;BME280;35735;52.226;21.254;2024-03-17T16:12:40;100582.72;;;3.08;100.00
44988;BME280;35735;52.226;21.254;2024-03-17T16:18:01;100585.34;;;3.07;100.00
44988;BME280;35735;52.226;21.254;2024-03-17T16:23:22;100593.09;;;2.99;100.00
44988;BME280;35735;52.226;21.254;2024-03-17T16:28:43;100600.22;;;3.00;100.00
44988;BME280;35735;52.226;21.254;2024-03-17T16:34:03;100604.16;;;2.84;100.00
44988;BME280;35735;52.226;21.254;2024-03-17T16:39:25;100601.22;;;2.76;100.00
44988;BME280;35735;52.226;21.254;2024-03-17T16:44:55;100606.53;;;2.76;100.00
44988;BME280;35735;52.226;21.254;2024-03-17T16:50:20;100611.13;;;2.81;100.00
44988;BME280;35735;52.226;21.254;2024-03-17T16:55:42;100613.78;;;2.81;100.00
44988;BME280;35735;52.226;21.254;2024-03-17T17:01:03;100621.78;;;2.81;100.00
44988;BME280;35735;52.226;21.254;2024-03-17T17:06:24;100621.78;;;2.81;100.00
44988;BME280;35735;52.226;21.254;2024-03-17T17:11:45;100623.66;;;2.83;100.00
44988;BME280;35735;52.226;21.254;2024-03-17T17:17:05;100623.87;;;2.89;100.00
44988;BME280;35735;52.226;21.254;2024-03-17T17:22:26;100619.56;;;2.93;100.00
44988;BME280;35735;52.226;21.254;2024-03-17T17:27:47;100627.56;;;2.93;100.00
44988;BME280;35735;52.226;21.254;2024-03-17T17:33:08;100633.72;;;2.92;100.00
44988;BME280;35735;52.226;21.254;2024-03-17T17:38:29;100637.34;;;2.94;100.00
44988;BME280;35735;52.226;21.254;2024-03-17T17:43:51;100639.16;;;2.95;100.00
44988;BME280;35735;52.226;21.254;2024-03-17T17:49:13;100638.31;;;2.96;100.00
44988;BME280;35735;52.226;21.254;2024-03-17T17:54:33;100641.84;;;2.95;100.00
44988;BME280;35735;52.226;21.254;2024-03-17T17:59:54;100651.44;;;2.90;100.00
44988;BME280;35735;52.226;21.254;2024-03-17T18:05:15;100643.09;;;2.81;100.00
44988;BME280;35735;52.226;21.254;2024-03-17T18:10:39;100643.09;;;2.79;100.00
44988;BME280;35735;52.226;21.254;2024-03-17T18:16:04;100640.50;;;2.82;100.00
44988;BME280;35735;52.226;21.254;2024-03-17T18:21:26;100642.16;;;2.78;100.00
44988;BME280;35735;52.226;21.254;2024-03-17T18:26:47;100641.13;;;2.75;100.00
44988;BME280;35735;52.226;21.254;2024-03-17T18:32:08;100641.72;;;2.66;100.00
44988;BME280;35735;52.226;21.254;2024-03-17T18:37:29;100639.59;;;2.56;100.00
44988;BME280;35735;52.226;21.254;2024-03-17T18:42:50;100641.06;;;2.48;100.00
44988;BME280;35735;52.226;21.254;2024-03-17T18:48:10;100648.91;;;2.43;100.00
44988;BME280;35735;52.226;21.254;2024-03-17T18:53:31;100642.56;;;2.39;100.00
44988;BME280;35735;52.226;21.254;2024-03-17T18:58:52;100647.13;;;2.44;100.00
44988;BME280;35735;52.226;21.254;2024-03-17T19:04:13;100653.16;;;2.38;100.00
44988;BME280;35735;52.226;21.254;2024-03-17T19:09:34;100657.22;;;2.28;100.00
44988;BME280;35735;52.226;21.254;2024-03-17T19:14:55;100646.34;;;2.22;100.00
44988;BME280;35735;52.226;21.254;2024-03-17T19:20:16;100641.50;;;2.12;100.00
44988;BME280;35735;52.226;21.254;2024-03-17T19:25:37;100645.06;;;2.11;100.00
44988;BME280;35735;52.226;21.254;2024-03-17T19:30:58;100638.00;;;2.13;100.00
44988;BME280;35735;52.226;21.254;2024-03-17T19:36:19;100639.03;;;2.16;100.00
44988;BME280;35735;52.226;21.254;2024-03-17T19:41:40;100644.37;;;2.16;100.00
44988;BME280;35735;52.226;21.254;2024-03-17T19:47:01;100634.59;;;2.17;100.00
44988;BME280;35735;52.226;21.254;2024-03-17T19:52:22;100634.59;;;2.17;100.00
44988;BME280;35735;52.226;21.254;2024-03-17T19:57:43;100635.53;;;2.17;100.00
44988;BME280;35735;52.226;21.254;2024-03-17T20:03:04;100634.59;;;2.17;100.00
44988;BME280;35735;52.226;21.254;2024-03-17T20:08:25;100636.38;;;2.16;100.00
44988;BME280;35735;52.226;21.254;2024-03-17T20:13:46;100635.62;;;2.20;100.00
44988;BME280;35735;52.226;21.254;2024-03-17T20:19:08;100630.47;;;2.25;100.00
44988;BME280;35735;52.226;21.254;2024-03-17T20:24:29;100626.00;;;2.24;100.00
44988;BME280;35735;52.226;21.254;2024-03-17T20:29:50;100619.75;;;2.23;100.00
44988;BME280;35735;52.226;21.254;2024-03-17T20:35:10;100623.44;;;2.27;100.00
44988;BME280;35735;52.226;21.254;2024-03-17T20:40:31;100621.75;;;2.29;100.00
44988;BME280;35735;52.226;21.254;2024-03-17T20:45:52;100609.16;;;2.25;100.00
44988;BME280;35735;52.226;21.254;2024-03-17T20:51:15;100613.53;;;2.23;100.00
44988;BME280;35735;52.226;21.254;2024-03-17T20:56:36;100610.88;;;2.23;100.00
44988;BME280;35735;52.226;21.254;2024-03-17T21:01:57;100610.69;;;2.18;100.00
44988;BME280;35735;52.226;21.254;2024-03-17T21:07:17;100599.72;;;2.09;100.00
44988;BME280;35735;52.226;21.254;2024-03-17T21:12:39;100599.37;;;2.00;100.00
44988;BME280;35735;52.226;21.254;2024-03-17T21:18:00;100604.25;;;1.88;100.00
44988;BME280;35735;52.226;21.254;2024-03-17T21:23:21;100597.66;;;1.78;100.00
44988;BME280;35735;52.226;21.254;2024-03-17T21:28:42;100583.97;;;1.69;100.00
44988;BME280;35735;52.226;21.254;2024-03-17T21:34:03;100584.59;;;1.61;100.00
44988;BME280;35735;52.226;21.254;2024-03-17T21:39:24;100581.25;;;1.67;100.00
44988;BME280;35735;52.226;21.254;2024-03-17T21:44:45;100570.53;;;1.64;100.00
44988;BME280;35735;52.226;21.254;2024-03-17T21:50:07;100574.75;;;1.59;100.00
44988;BME280;35735;52.226;21.254;2024-03-17T21:55:31;100568.50;;;1.58;100.00
44988;BME280;35735;52.226;21.254;2024-03-17T22:00:52;100568.50;;;1.58;100.00
44988;BME280;35735;52.226;21.254;2024-03-17T22:06:13;100574.75;;;1.59;100.00
44988;BME280;35735;52.226;21.254;2024-03-17T22:11:34;100577.38;;;1.57;100.00
44988;BME280;35735;52.226;21.254;2024-03-17T22:16:54;100569.84;;;1.47;100.00
44988;BME280;35735;52.226;21.254;2024-03-17T22:22:15;100574.81;;;1.38;100.00
44988;BME280;35735;52.226;21.254;2024-03-17T22:27:36;100566.00;;;1.39;100.00
44988;BME280;35735;52.226;21.254;2024-03-17T22:32:57;100563.34;;;1.39;100.00
44988;BME280;35735;52.226;21.254;2024-03-17T22:38:18;100557.16;;;1.40;100.00
44988;BME280;35735;52.226;21.254;2024-03-17T22:43:40;100552.34;;;1.29;100.00
44988;BME280;35735;52.226;21.254;2024-03-17T22:49:01;100548.09;;;1.35;100.00
44988;BME280;35735;52.226;21.254;2024-03-17T22:54:22;100547.25;;;1.36;100.00
44988;BME280;35735;52.226;21.254;2024-03-17T22:59:44;100547.84;;;1.28;100.00
44988;BME280;35735;52.226;21.254;2024-03-17T23:05:05;100556.69;;;1.27;100.00
44988;BME280;35735;52.226;21.254;2024-03-17T23:10:26;100545.94;;;1.24;100.00
44988;BME280;35735;52.226;21.254;2024-03-17T23:15:47;100544.34;;;1.29;100.00
44988;BME280;35735;52.226;21.254;2024-03-17T23:21:08;100539.03;;;1.29;100.00
44988;BME280;35735;52.226;21.254;2024-03-17T23:26:29;100529.34;;;1.32;100.00
44988;BME280;35735;52.226;21.254;2024-03-17T23:31:50;100531.25;;;1.34;100.00
44988;BME280;35735;52.226;21.254;2024-03-17T23:37:11;100527.78;;;1.37;100.00
44988;BME280;35735;52.226;21.254;2024-03-17T23:42:32;100524.03;;;1.32;100.00
44988;BME280;35735;52.226;21.254;2024-03-17T23:47:53;100538.34;;;1.35;100.00
44988;BME280;35735;52.226;21.254;2024-03-17T23:53:14;100530.44;;;1.37;100.00
44988;BME280;35735;52.226;21.254;2024-03-17T23:58:35;100521.50;;;1.35;100.00
